Time;durP1;ratioP1;P1;durP2;ratioP2;P2;SDS_P1;SDS_P2;PMS_P1;PMS_P2;Temp;Humidity;BMP_temperature;BMP_pressure;BME280_temperature;BME280_humidity;BME280_pressure;Samples;Min_cycle;Max_cycle;Signal;HPM_P1;HPM_P2
2023/07/27 00:00:56;;;;;;;1.20;0.60;;;;;;;14.30;100.00;99848.09;1477115;88;21448;-79
2023/07/27 00:03:22;;;;;;;1.17;1.07;;;;;;;14.28;100.00;99846.11;1477126;88;21470;-79
2023/07/27 00:05:49;;;;;;;1.90;0.83;;;;;;;14.31;100.00;99848.39;1477262;88;21529;-78
2023/07/27 00:08:15;;;;;;;1.03;0.87;;;;;;;14.33;100.00;99848.22;1476105;88;21441;-78
2023/07/27 00:10:41;;;;;;;1.60;0.90;;;;;;;14.34;100.00;99846.69;1476969;88;21507;-83
2023/07/27 00:13:07;;;;;;;7.77;1.23;;;;;;;14.32;100.00;99852.70;1477412;88;21345;-82
2023/07/27 00:15:34;;;;;;;2.23;1.00;;;;;;;14.31;100.00;99853.72;1475072;88;21582;-79
2023/07/27 00:18:00;;;;;;;1.33;0.77;;;;;;;14.31;100.00;99851.05;1479056;88;21669;-79
2023/07/27 00:20:26;;;;;;;3.70;0.90;;;;;;;14.35;100.00;99857.64;1473247;88;21374;-80
2023/07/27 00:22:52;;;;;;;1.07;0.70;;;;;;;14.37;100.00;99854.30;1474432;88;21957;-80
2023/07/27 00:25:19;;;;;;;1.33;1.00;;;;;;;14.39;100.00;99848.30;1479403;88;21330;-80
2023/07/27 00:27:45;;;;;;;1.70;1.00;;;;;;;14.41;100.00;99843.62;1483059;88;21433;-80
2023/07/27 00:30:13;;;;;;;0.90;0.90;;;;;;;14.39;100.00;99846.96;1449624;88;21419;-79
2023/07/27 00:32:39;;;;;;;4.10;1.00;;;;;;;14.35;100.00;99849.66;1475973;88;22031;-79
2023/07/27 00:35:06;;;;;;;1.67;0.80;;;;;;;14.30;100.00;99843.23;1478849;88;21382;-79
2023/07/27 00:37:33;;;;;;;1.30;0.93;;;;;;;14.24;100.00;99844.81;1408776;88;21220;-80
2023/07/27 00:39:59;;;;;;;2.47;0.90;;;;;;;14.21;100.00;99850.02;1565469;88;21197;-79
2023/07/27 00:42:25;;;;;;;1.33;0.87;;;;;;;14.19;100.00;99848.55;1403828;88;21205;-77
2023/07/27 00:44:51;;;;;;;1.20;0.80;;;;;;;14.20;100.00;99848.86;1403497;88;21301;-78
2023/07/27 00:47:18;;;;;;;5.20;1.10;;;;;;;14.20;100.00;99848.86;1403794;88;21323;-78
2023/07/27 00:49:44;;;;;;;4.00;0.90;;;;;;;14.17;100.00;99860.70;1414308;88;21220;-78
2023/07/27 00:52:10;;;;;;;1.33;0.90;;;;;;;14.13;100.00;99858.10;1481200;88;21413;-78
2023/07/27 00:54:36;;;;;;;3.23;0.87;;;;;;;14.09;100.00;99859.97;1475972;88;21626;-78
2023/07/27 00:57:04;;;;;;;3.20;0.97;;;;;;;14.03;100.00;99865.52;1479418;88;21300;-78
2023/07/27 00:59:30;;;;;;;1.70;0.90;;;;;;;13.95;100.00;99865.13;1482688;88;21397;-77
2023/07/27 01:01:57;;;;;;;4.50;1.03;;;;;;;13.89;100.00;99870.33;1480719;88;21375;-77
2023/07/27 01:04:24;;;;;;;3.57;0.90;;;;;;;13.84;100.00;99884.67;1480201;88;22544;-78
2023/07/27 01:06:50;;;;;;;2.97;1.47;;;;;;;13.81;100.00;99879.72;1481513;88;21360;-78
2023/07/27 01:09:16;;;;;;;3.57;0.90;;;;;;;13.75;100.00;99882.61;1482825;88;21566;-78
2023/07/27 01:12:13;;;;;;;2.30;0.80;;;;;;;13.70;100.00;99878.36;1484745;88;21508;-79
2023/07/27 01:15:12;;;;;;;1.47;1.03;;;;;;;13.66;100.00;99881.03;1479976;88;21463;-79
2023/07/27 01:18:14;;;;;;;1.77;0.97;;;;;;;13.64;100.00;99883.89;1480493;88;21514;-80
2023/07/27 01:20:47;;;;;;;9.33;1.50;;;;;;;13.56;100.00;99881.30;1478379;88;21440;-79
2023/07/27 01:23:22;;;;;;;1.97;0.90;;;;;;;13.48;100.00;99891.50;1454648;88;21507;-80
2023/07/27 01:26:28;;;;;;;2.93;0.80;;;;;;;13.45;100.00;99891.86;1474878;88;21522;-78
2023/07/27 01:29:21;;;;;;;6.17;1.03;;;;;;;13.41;100.00;99879.13;1472244;88;22313;-79
2023/07/27 01:31:51;;;;;;;3.50;0.83;;;;;;;13.33;100.00;99889.81;1474938;88;21492;-79
2023/07/27 01:34:32;;;;;;;3.43;1.30;;;;;;;13.28;100.00;99889.02;1458367;88;21398;-78
2023/07/27 01:37:04;;;;;;;3.23;1.17;;;;;;;13.24;100.00;99885.86;1399115;88;21464;-79
2023/07/27 01:39:34;;;;;;;5.23;1.13;;;;;;;13.22;100.00;99890.52;1414099;88;21365;-80
2023/07/27 01:42:02;;;;;;;5.12;0.90;;;;;;;13.20;100.00;99886.37;1565373;88;21588;-77
2023/07/27 01:44:31;;;;;;;1.37;0.83;;;;;;;13.15;100.00;99879.44;1408513;88;22366;-79
2023/07/27 01:46:59;;;;;;;1.90;0.90;;;;;;;13.10;100.00;99875.49;1400781;88;21272;-78
2023/07/27 01:49:28;;;;;;;7.37;1.27;;;;;;;13.06;100.00;99877.34;1388179;89;21309;-78
2023/07/27 01:51:56;;;;;;;3.40;0.97;;;;;;;13.04;100.00;99877.53;1381589;89;21280;-78
2023/07/27 01:54:23;;;;;;;4.47;1.63;;;;;;;13.03;100.00;99886.52;1389206;88;21281;-80
2023/07/27 01:56:50;;;;;;;2.10;0.80;;;;;;;13.04;100.00;99888.16;1541823;88;21213;-80
2023/07/27 01:59:17;;;;;;;1.27;0.87;;;;;;;13.01;100.00;99889.84;1403022;88;21323;-79
2023/07/27 02:01:44;;;;;;;2.37;1.40;;;;;;;12.97;100.00;99879.23;1401681;88;21265;-79
2023/07/27 02:04:11;;;;;;;6.60;1.70;;;;;;;12.93;100.00;99881.92;1384400;89;21462;-79
2023/07/27 02:06:37;;;;;;;2.17;0.93;;;;;;;12.90;100.00;99891.58;1409033;88;21286;-81
2023/07/27 02:09:03;;;;;;;2.57;1.00;;;;;;;12.85;100.00;99885.95;1409784;88;21345;-81
2023/07/27 02:11:29;;;;;;;2.50;0.90;;;;;;;12.81;100.00;99886.81;1537943;88;22448;-81
2023/07/27 02:14:06;;;;;;;2.37;1.00;;;;;;;12.76;100.00;99882.52;1404054;88;21249;-80
2023/07/27 02:16:52;;;;;;;2.77;0.90;;;;;;;12.71;100.00;99886.70;1559796;88;21293;-81
2023/07/27 02:19:24;;;;;;;1.67;0.90;;;;;;;12.65;100.00;99886.39;1404997;88;21405;-80
2023/07/27 02:21:51;;;;;;;1.90;0.80;;;;;;;12.62;100.00;99886.74;1556916;88;21294;-81
2023/07/27 02:24:17;;;;;;;2.83;1.00;;;;;;;12.61;100.00;99887.75;1565639;88;21279;-81
2023/07/27 02:26:44;;;;;;;0.90;0.80;;;;;;;12.63;100.00;99895.56;1403532;88;21449;-81
2023/07/27 02:29:10;;;;;;;1.13;0.93;;;;;;;12.63;100.00;99895.05;1539860;88;21272;-81
2023/07/27 02:31:36;;;;;;;3.73;1.00;;;;;;;12.64;100.00;99892.71;1386506;89;22152;-81
2023/07/27 02:34:02;;;;;;;2.10;1.10;;;;;;;12.65;100.00;99899.66;1410162;88;21420;-82
2023/07/27 02:36:28;;;;;;;1.73;1.00;;;;;;;12.68;100.00;99900.33;1403622;88;21219;-79
2023/07/27 02:38:55;;;;;;;3.70;1.30;;;;;;;12.69;100.00;99905.95;1409670;88;21286;-80
2023/07/27 02:41:21;;;;;;;1.30;1.00;;;;;;;12.69;100.00;99904.63;1404437;88;21257;-79
2023/07/27 02:43:47;;;;;;;2.57;1.20;;;;;;;12.73;100.00;99904.63;1409795;88;21227;-79
2023/07/27 02:46:13;;;;;;;3.93;1.13;;;;;;;12.75;100.00;99907.94;1565814;88;21169;-80
2023/07/27 02:48:39;;;;;;;4.27;1.37;;;;;;;12.78;100.00;99908.91;1404122;88;21323;-81
2023/07/27 02:51:05;;;;;;;2.83;1.27;;;;;;;12.82;100.00;99911.03;1403838;88;21258;-80
2023/07/27 02:53:32;;;;;;;1.60;1.30;;;;;;;12.87;100.00;99913.17;1403968;88;21250;-80
2023/07/27 02:56:00;;;;;;;3.33;1.40;;;;;;;12.88;100.00;99912.16;1409824;88;21381;-80
2023/07/27 02:58:27;;;;;;;8.03;2.73;;;;;;;12.88;100.00;99912.16;1401367;88;21323;-79
2023/07/27 03:00:59;;;;;;;1.50;1.17;;;;;;;12.86;100.00;99918.99;1409497;87;21234;-79
2023/07/27 03:03:26;;;;;;;2.40;1.03;;;;;;;12.81;100.00;99922.66;1400224;88;21279;-78
2023/07/27 03:06:01;;;;;;;1.60;1.17;;;;;;;12.76;100.00;99924.19;1391519;89;21449;-79
2023/07/27 03:08:28;;;;;;;4.07;1.53;;;;;;;12.71;100.00;99929.19;1401245;88;21443;-80
2023/07/27 03:10:55;;;;;;;1.73;1.07;;;;;;;12.68;100.00;99932.19;1493517;87;21514;-81
2023/07/27 03:13:21;;;;;;;7.90;1.43;;;;;;;12.62;100.00;99930.55;1457698;88;22233;-81
2023/07/27 03:15:48;;;;;;;3.43;1.27;;;;;;;12.59;100.00;99939.36;1482636;88;21411;-80
2023/07/27 03:18:14;;;;;;;3.17;1.60;;;;;;;12.55;100.00;99941.55;1480054;88;21556;-80
2023/07/27 03:20:41;;;;;;;2.00;1.40;;;;;;;12.53;100.00;99948.02;1478860;88;21374;-81
2023/07/27 03:23:11;;;;;;;2.30;1.43;;;;;;;12.49;100.00;99947.54;1459725;88;21470;-80
2023/07/27 03:25:38;;;;;;;2.33;1.27;;;;;;;12.46;100.00;99953.19;1476136;88;21478;-81
2023/07/27 03:28:06;;;;;;;1.73;1.10;;;;;;;12.42;100.00;99949.21;1482240;88;22314;-80
2023/07/27 03:30:35;;;;;;;3.87;2.13;;;;;;;12.41;100.00;99951.55;1478554;88;22068;-79
2023/07/27 03:33:03;;;;;;;2.13;1.03;;;;;;;12.41;100.00;99951.04;1406767;88;21257;-79
2023/07/27 03:35:29;;;;;;;7.47;1.03;;;;;;;12.45;100.00;99952.84;1565463;88;22200;-80
2023/07/27 03:37:56;;;;;;;1.70;1.17;;;;;;;12.47;100.00;99954.84;1404381;88;21330;-80
2023/07/27 03:40:22;;;;;;;5.93;1.57;;;;;;;12.51;100.00;99960.12;1403922;88;21250;-79
2023/07/27 03:42:48;;;;;;;3.57;1.10;;;;;;;12.55;100.00;99956.64;1403634;88;21250;-79
2023/07/27 03:45:15;;;;;;;5.80;3.00;;;;;;;12.53;100.00;99959.45;1410236;88;21368;-80
2023/07/27 03:47:43;;;;;;;3.63;1.30;;;;;;;12.57;100.00;99970.55;1562406;88;22222;-80
2023/07/27 03:50:10;;;;;;;3.53;1.03;;;;;;;12.56;100.00;99973.71;1408664;88;21430;-79
2023/07/27 03:52:37;;;;;;;2.50;1.10;;;;;;;12.60;100.00;99980.35;1402146;88;21390;-79
2023/07/27 03:55:04;;;;;;;2.57;1.70;;;;;;;12.60;100.00;99981.68;1409027;88;21264;-80
2023/07/27 03:57:32;;;;;;;1.20;1.10;;;;;;;12.62;100.00;99980.98;1562621;88;21184;-79
2023/07/27 03:59:59;;;;;;;4.37;1.33;;;;;;;12.67;100.00;99988.95;1402297;88;21295;-79
2023/07/27 04:02:27;;;;;;;2.37;1.50;;;;;;;12.70;100.00;99987.28;1415016;88;21287;-79
2023/07/27 04:04:53;;;;;;;3.60;1.57;;;;;;;12.72;100.00;99988.77;1402181;88;21198;-80
2023/07/27 04:07:20;;;;;;;3.27;1.53;;;;;;;12.75;100.00;99987.59;1408815;88;21315;-79
2023/07/27 04:09:47;;;;;;;4.80;1.00;;;;;;;12.79;100.00;99990.22;1409129;88;21434;-80
2023/07/27 04:12:13;;;;;;;6.10;1.77;;;;;;;12.80;100.00;99983.42;1559386;88;21227;-79
2023/07/27 04:14:39;;;;;;;3.20;1.77;;;;;;;12.85;100.00;99992.19;1565695;88;22078;-81
2023/07/27 04:17:07;;;;;;;2.97;1.53;;;;;;;12.88;100.00;99984.69;1402711;88;21241;-79
2023/07/27 04:19:35;;;;;;;1.73;1.37;;;;;;;12.95;100.00;99990.16;1418238;88;22276;-79
2023/07/27 04:22:02;;;;;;;2.63;1.70;;;;;;;13.00;100.00;99989.11;1480009;87;21323;-79
2023/07/27 04:24:28;;;;;;;3.57;1.70;;;;;;;13.07;100.00;99994.08;1480116;88;21404;-79
2023/07/27 04:26:54;;;;;;;2.50;1.40;;;;;;;13.12;100.00;99992.23;1477370;88;21583;-78
2023/07/27 04:29:20;;;;;;;2.63;1.73;;;;;;;13.18;100.00;99996.02;1481533;88;21382;-80
2023/07/27 04:31:47;;;;;;;5.13;2.37;;;;;;;13.23;100.00;99992.31;1483429;88;21534;-80
2023/07/27 04:34:13;;;;;;;5.30;2.50;;;;;;;13.31;100.00;99997.11;1474719;88;21360;-79
2023/07/27 04:36:40;;;;;;;2.80;1.40;;;;;;;13.41;100.00;99996.90;1480892;88;22366;-79
2023/07/27 04:39:06;;;;;;;4.27;2.07;;;;;;;13.52;100.00;99997.82;1479159;88;21381;-79
2023/07/27 04:41:32;;;;;;;3.57;1.53;;;;;;;13.64;100.00;99993.42;1465662;88;21470;-79
2023/07/27 04:43:59;;;;;;;3.20;1.10;;;;;;;13.78;100.00;99999.27;1479081;88;22425;-79
2023/07/27 04:46:25;;;;;;;1.90;1.43;;;;;;;13.91;100.00;99999.50;1476993;88;21373;-79
2023/07/27 04:48:51;;;;;;;3.30;1.30;;;;;;;14.02;100.00;100003.56;1480821;88;21375;-79
2023/07/27 04:51:17;;;;;;;3.70;1.40;;;;;;;14.09;100.00;100005.81;1472360;88;21571;-80
2023/07/27 04:53:43;;;;;;;2.33;1.60;;;;;;;14.17;100.00;100004.92;1485608;88;21352;-77
2023/07/27 04:56:09;;;;;;;1.80;1.50;;;;;;;14.24;100.00;99999.17;1478951;88;21381;-80
2023/07/27 04:58:35;;;;;;;3.90;1.47;;;;;;;14.34;100.00;100001.08;1477126;87;22375;-82
2023/07/27 05:01:01;;;;;;;6.43;2.93;;;;;;;14.43;100.00;100005.81;1483176;88;21374;-82
2023/07/27 05:03:28;;;;;;;5.23;1.47;;;;;;;14.54;100.00;100007.23;1479090;88;21501;-82
2023/07/27 05:05:54;;;;;;;3.80;1.40;;;;;;;14.64;100.00;99999.30;1481798;88;21471;-85
2023/07/27 05:08:20;;;;;;;6.83;1.17;;;;;;;14.74;100.00;100002.19;1481841;88;22380;-84
2023/07/27 05:10:56;;;;;;;5.43;1.77;;;;;;;14.81;100.00;100006.56;1477280;88;21382;-85
2023/07/27 05:13:28;;;;;;;1.40;0.93;;;;;;;14.92;100.00;100015.11;1559612;87;21279;-84
2023/07/27 05:15:54;;;;;;;2.87;1.23;;;;;;;15.02;100.00;100017.81;1386515;89;21338;-85
2023/07/27 05:18:24;;;;;;;2.63;1.50;;;;;;;15.09;100.00;100019.22;1404000;88;22248;-84
2023/07/27 05:20:50;;;;;;;5.20;2.17;;;;;;;15.16;100.00;100017.44;1480257;88;21367;-84
2023/07/27 05:23:16;;;;;;;4.87;1.10;;;;;;;15.22;100.00;100011.39;1459730;88;21530;-85
2023/07/27 05:25:44;;;;;;;4.53;1.60;;;;;;;15.31;100.00;100016.92;1481393;88;21434;-85
2023/07/27 05:28:10;;;;;;;6.20;1.30;;;;;;;15.46;100.00;100022.71;1450202;88;21471;-85
2023/07/27 05:30:36;;;;;;;6.03;1.37;;;;;;;15.62;100.00;100026.45;1480431;88;22278;-85
2023/07/27 05:33:03;;;;;;;2.37;1.50;;;;;;;15.79;100.00;100026.57;1479689;88;21523;-84
2023/07/27 05:35:29;;;;;;;1.80;1.40;;;;;;;15.97;100.00;100028.78;1476124;87;21382;-84
2023/07/27 05:37:58;;;;;;;3.07;1.50;;;;;;;16.12;100.00;100028.69;1477048;88;21647;-84
2023/07/27 05:40:24;;;;;;;1.97;1.40;;;;;;;16.31;100.00;100029.02;1402394;88;21493;-85
2023/07/27 05:42:51;;;;;;;3.90;1.63;;;;;;;16.36;100.00;100026.08;1403984;88;21264;-85
2023/07/27 05:45:19;;;;;;;2.67;1.40;;;;;;;16.42;100.00;100033.83;1558332;88;21294;-86
2023/07/27 05:47:45;;;;;;;5.77;1.70;;;;;;;16.49;100.00;100029.37;1486500;88;21567;-86
2023/07/27 05:50:11;;;;;;;4.27;2.33;;;;;;;16.59;100.00;100035.69;1481845;88;22264;-84
2023/07/27 05:52:37;;;;;;;2.90;1.27;;;;;;;16.66;99.95;100039.23;1459491;88;21389;-83
2023/07/27 05:55:04;;;;;;;3.40;1.30;;;;;;;16.66;98.43;100044.06;1478423;88;21368;-86
2023/07/27 05:57:30;;;;;;;2.33;1.30;;;;;;;16.69;98.98;100043.67;1482117;88;21389;-84
2023/07/27 05:59:57;;;;;;;4.57;1.50;;;;;;;16.72;96.32;100053.14;1479606;88;21620;-85
2023/07/27 06:02:23;;;;;;;2.07;1.50;;;;;;;16.80;97.54;100054.84;1479787;88;21582;-84
2023/07/27 06:04:49;;;;;;;3.00;1.50;;;;;;;16.84;97.29;100052.92;1481582;88;21382;-86
2023/07/27 06:07:15;;;;;;;5.33;2.43;;;;;;;16.98;97.71;100058.34;1481517;88;21359;-84
2023/07/27 06:09:41;;;;;;;2.05;1.22;;;;;;;17.06;98.03;100062.16;1475560;88;23885;-84
2023/07/27 06:12:14;;;;;;;3.33;1.80;;;;;;;17.22;97.83;100061.02;1478358;88;21411;-86
2023/07/27 06:14:40;;;;;;;2.70;1.52;;;;;;;17.36;96.56;100064.05;1477490;88;21456;-86
2023/07/27 06:17:07;;;;;;;3.12;1.70;;;;;;;17.53;95.20;100057.83;1472631;88;21487;-83
2023/07/27 06:19:34;;;;;;;5.70;1.75;;;;;;;17.68;93.08;100066.50;1473232;88;21500;-88
2023/07/27 06:22:00;;;;;;;9.10;1.40;;;;;;;17.73;91.91;100064.05;1462262;88;22373;-87
2023/07/27 06:24:26;;;;;;;1.70;1.25;;;;;;;17.86;92.81;100065.12;1474332;88;22379;-84
2023/07/27 06:26:52;;;;;;;3.12;1.40;;;;;;;17.95;91.65;100062.55;1476001;88;21435;-85
2023/07/27 06:29:18;;;;;;;3.77;1.67;;;;;;;18.00;90.93;100070.28;1474990;88;21338;-86
2023/07/27 06:31:44;;;;;;;3.60;1.22;;;;;;;18.05;89.23;100069.67;1476852;88;21345;-84
2023/07/27 06:34:11;;;;;;;2.00;1.50;;;;;;;18.12;87.05;100072.34;1459250;88;21390;-85
2023/07/27 06:36:37;;;;;;;2.90;1.50;;;;;;;18.17;88.20;100069.88;1474416;88;21508;-87
2023/07/27 06:39:04;;;;;;;4.87;1.50;;;;;;;18.31;88.53;100078.23;1475016;88;21419;-87
2023/07/27 06:41:31;;;;;;;2.20;1.10;;;;;;;18.36;88.34;100074.42;1474327;88;21463;-86
2023/07/27 06:44:08;;;;;;;2.30;1.45;;;;;;;18.41;85.97;100079.98;1471642;88;21418;-85
2023/07/27 06:46:35;;;;;;;2.08;1.02;;;;;;;18.50;87.17;100076.58;1470966;88;22157;-86
2023/07/27 06:49:01;;;;;;;2.20;1.30;;;;;;;18.64;86.76;100082.72;1470971;88;21382;-87
2023/07/27 06:51:27;;;;;;;4.35;1.20;;;;;;;18.76;87.13;100081.59;1475978;88;21412;-85
2023/07/27 06:53:54;;;;;;;2.92;1.47;;;;;;;18.84;87.51;100082.72;1473311;88;22300;-84
2023/07/27 06:56:21;;;;;;;5.12;1.00;;;;;;;18.96;86.65;100084.23;1470592;88;21404;-87
2023/07/27 06:58:47;;;;;;;3.52;0.80;;;;;;;19.05;85.64;100091.85;1474022;88;21563;-87
2023/07/27 07:01:13;;;;;;;4.20;1.32;;;;;;;19.09;84.18;100090.91;1470903;88;22351;-85
2023/07/27 07:03:40;;;;;;;2.05;1.22;;;;;;;19.09;84.35;100093.59;1478423;88;21440;-85
2023/07/27 07:06:06;;;;;;;3.47;1.25;;;;;;;19.08;82.32;100094.63;1461169;88;21628;-88
2023/07/27 07:08:32;;;;;;;9.65;1.72;;;;;;;19.17;83.75;100094.70;1472370;88;21382;-85
2023/07/27 07:10:58;;;;;;;4.35;1.55;;;;;;;19.16;80.89;100099.73;1475812;88;21455;-88
2023/07/27 07:13:25;;;;;;;2.62;1.05;;;;;;;19.25;83.08;100100.33;1480373;87;21556;-86
2023/07/27 07:15:52;;;;;;;3.00;1.95;;;;;;;19.36;83.23;100099.17;1483422;87;21715;-86
2023/07/27 07:18:18;;;;;;;3.05;1.50;;;;;;;19.39;81.76;100107.28;1480246;88;21419;-85
2023/07/27 07:20:46;;;;;;;4.70;1.20;;;;;;;19.41;81.08;100100.38;1480867;87;22341;-85
2023/07/27 07:23:12;;;;;;;3.33;1.17;;;;;;;19.45;81.36;100108.30;1480117;88;21749;-85
2023/07/27 07:25:40;;;;;;;1.47;0.85;;;;;;;19.47;80.01;100093.63;1482707;88;21360;-85
2023/07/27 07:28:06;;;;;;;4.65;1.25;;;;;;;19.49;80.13;100098.80;1482076;87;21330;-83
2023/07/27 07:30:33;;;;;;;3.20;1.47;;;;;;;19.55;80.27;100101.96;1484800;87;21301;-87
2023/07/27 07:32:59;;;;;;;2.75;1.25;;;;;;;19.62;80.24;100098.70;1476511;88;21367;-84
2023/07/27 07:35:25;;;;;;;2.58;1.10;;;;;;;19.68;81.04;100097.91;1480781;88;21389;-86
2023/07/27 07:37:52;;;;;;;6.85;1.12;;;;;;;19.79;79.79;100103.09;1477200;88;21360;-87
2023/07/27 07:40:20;;;;;;;3.47;1.40;;;;;;;19.80;78.60;100100.20;1462267;88;21567;-87
2023/07/27 07:42:46;;;;;;;4.60;1.40;;;;;;;19.87;78.23;100103.36;1481849;88;21532;-87
2023/07/27 07:45:12;;;;;;;2.72;1.30;;;;;;;19.90;77.25;100100.24;1477701;88;21836;-85
2023/07/27 07:47:38;;;;;;;2.08;1.20;;;;;;;20.04;77.57;100111.20;1482271;88;21538;-85
2023/07/27 07:50:06;;;;;;;3.45;1.27;;;;;;;20.04;77.57;100111.20;1458726;88;21345;-88
2023/07/27 07:52:33;;;;;;;4.08;1.30;;;;;;;20.14;77.68;100090.56;1408384;87;21589;-84
2023/07/27 07:54:59;;;;;;;6.12;0.98;;;;;;;20.27;78.58;100111.97;1565714;87;21410;-84
2023/07/27 07:57:25;;;;;;;3.40;1.35;;;;;;;20.40;76.04;100118.59;1403459;88;21270;-84
2023/07/27 07:59:52;;;;;;;2.22;0.90;;;;;;;20.57;77.40;100117.55;1392165;89;21375;-86
2023/07/27 08:02:18;;;;;;;2.17;1.77;;;;;;;20.64;76.28;100120.98;1403945;88;22389;-84
2023/07/27 08:04:44;;;;;;;2.85;1.50;;;;;;;20.73;76.51;100122.86;1464023;88;21367;-87
2023/07/27 08:07:10;;;;;;;4.37;1.25;;;;;;;20.85;76.82;100115.70;1460112;88;21397;-87
2023/07/27 08:09:36;;;;;;;3.67;1.50;;;;;;;20.88;72.82;100113.09;1478794;88;21434;-88
2023/07/27 08:12:03;;;;;;;5.33;1.37;;;;;;;20.87;74.56;100120.88;1476113;88;22676;-87
2023/07/27 08:14:30;;;;;;;4.28;1.55;;;;;;;20.89;71.80;100112.88;1476630;87;21360;-87
2023/07/27 08:16:56;;;;;;;4.87;1.80;;;;;;;21.03;74.28;100114.91;1482653;88;21604;-86
2023/07/27 08:19:22;;;;;;;2.15;1.20;;;;;;;21.07;73.35;100109.38;1476655;88;21521;-86
2023/07/27 08:21:48;;;;;;;3.70;1.75;;;;;;;21.11;72.19;100116.47;1479605;87;21316;-87
2023/07/27 08:24:15;;;;;;;2.27;1.20;;;;;;;20.96;72.03;100124.91;1458945;88;21608;-86
2023/07/27 08:26:41;;;;;;;2.60;1.32;;;;;;;20.95;70.32;100123.28;1481717;88;21359;-88
2023/07/27 08:29:07;;;;;;;3.52;1.70;;;;;;;21.05;73.21;100120.05;1481643;88;21395;-88
2023/07/27 08:31:33;;;;;;;2.02;1.30;;;;;;;21.13;70.96;100114.38;1481705;88;22284;-86
2023/07/27 08:33:59;;;;;;;3.45;1.45;;;;;;;21.19;71.94;100114.30;1479900;88;21367;-86
2023/07/27 08:36:25;;;;;;;2.55;1.55;;;;;;;21.19;71.66;100114.83;1484639;88;21366;-87
2023/07/27 08:38:52;;;;;;;2.92;1.30;;;;;;;21.44;73.57;100112.61;1479489;87;21418;-84
2023/07/27 08:41:18;;;;;;;2.65;1.32;;;;;;;21.71;72.51;100107.68;1480096;88;21359;-85
2023/07/27 08:43:45;;;;;;;2.67;1.32;;;;;;;21.91;72.10;100114.95;1479649;88;22177;-87
2023/07/27 08:46:12;;;;;;;3.12;1.32;;;;;;;22.02;71.96;100118.20;1478007;87;21353;-84
2023/07/27 08:48:39;;;;;;;3.22;1.37;;;;;;;22.20;71.71;100117.33;1457542;88;21375;-89
2023/07/27 08:51:06;;;;;;;3.83;1.60;;;;;;;22.19;68.33;100114.89;1477960;88;21412;-86
2023/07/27 08:53:32;;;;;;;3.47;1.50;;;;;;;22.07;71.90;100115.65;1476589;88;22328;-84
2023/07/27 08:55:59;;;;;;;2.50;1.30;;;;;;;21.92;69.57;100115.23;1478472;88;21960;-83
2023/07/27 08:58:25;;;;;;;3.75;1.30;;;;;;;21.83;68.65;100112.05;1478843;87;22431;-86
2023/07/27 09:00:52;;;;;;;3.58;1.20;;;;;;;21.75;66.48;100112.39;1460921;88;21367;-85
2023/07/27 09:03:18;;;;;;;2.67;1.35;;;;;;;21.58;69.21;100114.08;1478813;88;21367;-85
2023/07/27 09:06:00;;;;;;;3.08;1.02;;;;;;;21.32;71.12;100118.72;1483594;88;21372;-86
2023/07/27 09:08:30;;;;;;;2.83;0.93;;;;;;;21.21;71.89;100120.00;1479372;88;21448;-85
2023/07/27 09:11:10;;;;;;;3.27;1.22;;;;;;;21.13;73.59;100119.23;1480912;87;21597;-85
2023/07/27 09:13:38;;;;;;;3.02;1.35;;;;;;;21.11;73.49;100119.16;1461621;88;21375;-85
2023/07/27 09:16:09;;;;;;;3.00;1.40;;;;;;;21.17;73.88;100123.11;1479039;88;21504;-87
2023/07/27 09:18:36;;;;;;;3.20;1.27;;;;;;;21.42;73.13;100116.04;1480053;88;21470;-86
2023/07/27 09:21:09;;;;;;;5.75;1.45;;;;;;;21.71;72.56;100105.80;1479263;88;21515;-86
2023/07/27 09:23:36;;;;;;;3.30;1.40;;;;;;;21.66;69.28;100118.30;1484287;88;22388;-83
2023/07/27 09:26:03;;;;;;;2.67;1.52;;;;;;;21.88;68.96;100119.98;1480540;88;21508;-86
2023/07/27 09:28:29;;;;;;;2.15;1.60;;;;;;;22.14;68.95;100116.88;1481473;88;21345;-85
2023/07/27 09:31:00;;;;;;;1.92;1.40;;;;;;;22.42;69.64;100116.27;1479234;88;22888;-81
2023/07/27 09:33:26;;;;;;;3.08;1.60;;;;;;;22.75;70.24;100118.90;1477888;87;21412;-86
2023/07/27 09:35:54;;;;;;;2.75;1.30;;;;;;;23.13;70.61;100121.64;1482731;88;21485;-85
2023/07/27 09:38:25;;;;;;;5.12;2.17;;;;;;;23.18;66.34;100112.30;1482434;88;22415;-86
2023/07/27 09:40:52;;;;;;;2.10;1.42;;;;;;;23.01;67.12;100124.90;1481375;88;21389;-86
2023/07/27 09:43:26;;;;;;;3.55;1.70;;;;;;;22.78;66.88;100117.08;1479324;87;21521;-86
2023/07/27 09:45:58;;;;;;;3.92;1.10;;;;;;;22.84;66.00;100112.09;1459818;88;21352;-85
2023/07/27 09:48:26;;;;;;;3.92;1.65;;;;;;;22.71;65.17;100109.65;1484385;88;21388;-86
2023/07/27 09:50:54;;;;;;;4.05;1.30;;;;;;;22.43;63.59;100111.69;1482191;88;22572;-87
2023/07/27 09:53:21;;;;;;;4.15;1.40;;;;;;;22.17;63.70;100112.91;1481518;87;21389;-87
2023/07/27 09:55:52;;;;;;;3.47;1.32;;;;;;;21.90;64.51;100114.66;1482103;87;21529;-86
2023/07/27 09:58:19;;;;;;;3.70;1.70;;;;;;;21.96;64.50;100115.09;1480081;88;21405;-86
2023/07/27 10:00:45;;;;;;;3.65;1.50;;;;;;;22.28;64.58;100114.84;1481779;88;22335;-86
2023/07/27 10:03:12;;;;;;;3.35;1.60;;;;;;;22.67;65.51;100111.16;1457556;88;21760;-86
2023/07/27 10:05:42;;;;;;;5.87;1.22;;;;;;;22.90;64.62;100111.16;1481002;88;21456;-86
2023/07/27 10:08:09;;;;;;;1.87;1.30;;;;;;;22.88;61.73;100105.18;1475215;88;21382;-86
2023/07/27 10:10:42;;;;;;;2.65;1.45;;;;;;;23.02;59.83;100102.23;1462017;88;21486;-87
2023/07/27 10:13:13;;;;;;;3.47;1.40;;;;;;;22.96;46.45;100104.85;1448470;88;21501;-84
2023/07/27 10:15:42;;;;;;;2.70;1.57;;;;;;;23.16;48.29;100099.06;1559215;88;21154;-85
2023/07/27 10:18:14;;;;;;;2.33;1.50;;;;;;;23.37;47.61;100097.59;1395196;88;21258;-84
2023/07/27 10:20:41;;;;;;;4.60;1.47;;;;;;;23.36;47.12;100102.71;1482482;88;21453;-86
2023/07/27 10:23:20;;;;;;;9.38;1.50;;;;;;;23.22;45.63;100101.34;1442912;88;21706;-86
2023/07/27 10:26:01;;;;;;;3.98;2.08;;;;;;;23.08;44.78;100102.66;1474548;88;21780;-86
2023/07/27 10:28:43;;;;;;;5.22;1.50;;;;;;;23.27;45.29;100093.86;1553640;88;21220;-85
2023/07/27 10:31:27;;;;;;;3.92;1.95;;;;;;;23.39;44.18;100094.13;1394236;88;21414;-84
2023/07/27 10:34:10;;;;;;;1.40;1.30;;;;;;;23.30;44.52;100092.84;1382352;90;21432;-84
2023/07/27 10:36:59;;;;;;;2.60;1.57;;;;;;;23.16;44.58;100095.02;1478122;88;22477;-86
2023/07/27 10:39:46;;;;;;;9.98;2.72;;;;;;;23.46;45.52;100085.06;1469150;88;21568;-86
2023/07/27 10:42:22;;;;;;;2.45;1.40;;;;;;;23.56;45.14;100083.89;1459127;88;22924;-83
2023/07/27 10:44:57;;;;;;;1.87;1.20;;;;;;;23.23;43.27;100080.02;1473244;88;21426;-85
2023/07/27 10:47:33;;;;;;;3.08;1.70;;;;;;;22.98;44.61;100086.52;1471561;88;21412;-84
2023/07/27 10:50:00;;;;;;;4.67;1.52;;;;;;;22.84;45.47;100084.29;1472303;88;21367;-85
2023/07/27 10:52:36;;;;;;;1.95;1.30;;;;;;;22.75;46.24;100086.53;1473894;88;22566;-86
2023/07/27 10:55:05;;;;;;;2.17;1.50;;;;;;;22.82;46.19;100077.80;1473887;88;21613;-83
2023/07/27 10:57:33;;;;;;;4.78;1.52;;;;;;;22.83;46.53;100076.73;1469557;88;21611;-82
2023/07/27 11:00:00;;;;;;;2.45;1.55;;;;;;;22.95;45.78;100075.39;1474403;88;21471;-85
2023/07/27 11:02:30;;;;;;;3.47;1.70;;;;;;;23.21;44.50;100069.98;1476895;88;22270;-85
2023/07/27 11:05:02;;;;;;;4.47;1.40;;;;;;;23.61;44.65;100067.78;1474006;88;21464;-86
2023/07/27 11:07:36;;;;;;;4.58;1.77;;;;;;;23.97;44.51;100067.11;1553267;88;21286;-87
2023/07/27 11:10:09;;;;;;;2.08;1.47;;;;;;;23.90;43.22;100065.08;1398094;88;21205;-83
2023/07/27 11:12:51;;;;;;;3.33;1.45;;;;;;;23.69;43.12;100066.58;1510224;88;21367;-85
2023/07/27 11:15:27;;;;;;;3.75;2.05;;;;;;;23.51;42.45;100074.36;1541484;88;21317;-83
2023/07/27 11:17:56;;;;;;;1.17;1.02;;;;;;;23.72;42.96;100062.89;1543420;88;22064;-84
2023/07/27 11:20:25;;;;;;;2.35;1.17;;;;;;;23.98;43.58;100056.03;1559045;88;22027;-83
2023/07/27 11:22:53;;;;;;;1.05;0.80;;;;;;;23.86;40.65;100053.41;1395950;88;21369;-84
2023/07/27 11:25:20;;;;;;;6.17;1.15;;;;;;;23.74;40.53;100055.91;1402045;88;22221;-85
2023/07/27 11:27:51;;;;;;;2.75;1.32;;;;;;;23.91;41.65;100055.90;1469410;88;21708;-84
2023/07/27 11:30:21;;;;;;;1.52;0.95;;;;;;;24.21;41.71;100052.34;1459184;88;21383;-86